createdAt,value
2018-12-17T00:00:20.729Z,43.80
2018-12-17T00:02:50.927Z,48.60
2018-12-17T00:05:20.949Z,48.43
2018-12-17T00:07:51.052Z,40.30
2018-12-17T00:10:21.076Z,36.97
2018-12-17T00:12:51.525Z,29.20
2018-12-17T00:15:22.526Z,9.77
2018-12-17T00:17:52.774Z,10.77
2018-12-17T00:20:22.874Z,4.80
2018-12-17T00:22:52.924Z,3.50
2018-12-17T00:25:22.960Z,6.20
2018-12-17T00:27:53.326Z,5.00
2018-12-17T00:30:23.464Z,9.53
2018-12-17T00:32:53.597Z,42.83
2018-12-17T00:35:23.676Z,64.57
2018-12-17T00:37:53.819Z,62.50
2018-12-17T00:40:23.962Z,65.27
2018-12-17T00:42:54.035Z,59.43
2018-12-17T00:45:25.276Z,61.53
2018-12-17T00:47:55.989Z,62.87
2018-12-17T00:50:26.590Z,63.87
2018-12-17T00:52:56.844Z,57.17
2018-12-17T00:55:27.188Z,65.10
2018-12-17T00:57:57.222Z,53.27
2018-12-17T01:00:27.325Z,49.67
2018-12-17T01:02:57.464Z,44.70
2018-12-17T01:05:27.728Z,57.90
2018-12-17T01:07:57.745Z,45.03
2018-12-17T01:10:28.031Z,45.23
2018-12-17T01:12:58.229Z,42.53
2018-12-17T01:15:28.305Z,48.27
2018-12-17T01:17:58.581Z,46.17
2018-12-17T01:20:28.702Z,41.60
2018-12-17T01:22:58.825Z,48.43
2018-12-17T01:25:28.832Z,42.63
2018-12-17T01:27:59.148Z,47.40
2018-12-17T01:30:29.337Z,45.93
2018-12-17T01:32:59.540Z,51.80
2018-12-17T01:35:33.752Z,48.90
2018-12-17T01:38:05.165Z,35.80
2018-12-17T01:40:35.460Z,37.77
2018-12-17T01:43:05.770Z,34.03
2018-12-17T01:45:35.920Z,35.67
2018-12-17T01:48:05.936Z,37.07
2018-12-17T01:50:36.020Z,41.83
2018-12-17T01:53:06.224Z,30.23
2018-12-17T01:55:36.388Z,34.70
2018-12-17T01:58:06.412Z,28.60
2018-12-17T02:00:36.462Z,28.80
2018-12-17T02:03:06.491Z,29.50
2018-12-17T02:05:36.509Z,27.07
2018-12-17T02:08:07.064Z,22.80
2018-12-17T02:10:37.089Z,23.37
2018-12-17T02:13:07.590Z,20.23
2018-12-17T02:15:37.896Z,15.93
2018-12-17T02:18:08.222Z,13.00
2018-12-17T02:20:38.565Z,10.50
2018-12-17T02:23:08.871Z,7.90
2018-12-17T02:25:39.198Z,4.53
2018-12-17T02:28:09.210Z,5.77
2018-12-17T02:30:39.437Z,5.63
2018-12-17T02:33:09.500Z,5.50
2018-12-17T02:35:39.577Z,7.07
2018-12-17T02:38:09.715Z,5.37
2018-12-17T02:40:39.697Z,5.03
2018-12-17T02:43:10.026Z,7.23
2018-12-17T02:45:40.300Z,5.80
2018-12-17T02:48:10.309Z,4.53
2018-12-17T02:50:40.664Z,8.47
2018-12-17T02:53:10.684Z,6.20
2018-12-17T02:55:41.013Z,5.20
2018-12-17T02:58:11.176Z,10.83
2018-12-17T03:00:41.430Z,4.60
2018-12-17T03:03:11.407Z,13.13
2018-12-17T03:05:41.423Z,19.00
2018-12-17T03:08:11.770Z,23.07
2018-12-17T03:10:42.049Z,18.37
2018-12-17T03:13:12.036Z,18.47
2018-12-17T03:15:42.278Z,20.43
2018-12-17T03:18:12.316Z,16.30
2018-12-17T03:20:42.666Z,14.43
2018-12-17T03:23:12.751Z,12.00
2018-12-17T03:25:42.803Z,23.30
2018-12-17T03:28:13.221Z,14.70
2018-12-17T03:30:43.248Z,12.70
2018-12-17T03:33:13.301Z,13.90
2018-12-17T03:35:43.512Z,13.97
2018-12-17T03:38:13.528Z,13.40
2018-12-17T03:40:43.589Z,13.37
2018-12-17T03:43:13.616Z,13.73
2018-12-17T03:45:44.172Z,7.60
2018-12-17T03:48:14.388Z,8.70
2018-12-17T03:50:44.500Z,8.40
2018-12-17T03:53:14.632Z,10.10
2018-12-17T03:55:44.904Z,8.43
2018-12-17T03:58:14.896Z,10.57
2018-12-17T04:00:45.019Z,15.57
2018-12-17T04:03:15.137Z,10.57
2018-12-17T04:05:45.266Z,16.93
2018-12-17T04:08:15.281Z,9.33
2018-12-17T04:10:45.362Z,9.30
2018-12-17T04:13:15.484Z,18.43
2018-12-17T04:15:45.894Z,13.90
2018-12-17T04:18:15.931Z,12.77
2018-12-17T04:20:45.948Z,14.43
2018-12-17T04:23:16.445Z,19.13
2018-12-17T04:25:46.516Z,24.20
2018-12-17T04:28:16.553Z,13.10
2018-12-17T04:30:46.809Z,13.97
2018-12-17T04:33:16.853Z,17.50
2018-12-17T04:35:46.902Z,14.00
2018-12-17T04:38:17.132Z,13.90
2018-12-17T04:40:47.442Z,14.87
2018-12-17T04:43:17.487Z,17.47
2018-12-17T04:45:47.702Z,15.07
2018-12-17T04:48:18.584Z,14.50
2018-12-17T04:50:48.608Z,18.63
2018-12-17T04:53:18.627Z,15.30
2018-12-17T04:55:48.956Z,14.50
2018-12-17T04:58:19.305Z,13.20
2018-12-17T05:00:49.302Z,13.07
2018-12-17T05:03:19.361Z,12.50
2018-12-17T05:05:49.389Z,12.13
2018-12-17T05:08:19.676Z,14.77
2018-12-17T05:10:49.695Z,12.03
2018-12-17T05:13:19.924Z,14.33
2018-12-17T05:15:50.052Z,16.83
2018-12-17T05:18:20.363Z,15.73
2018-12-17T05:20:50.574Z,15.50
2018-12-17T05:23:21.199Z,14.00
2018-12-17T05:25:51.228Z,16.80
2018-12-17T05:28:21.262Z,14.33
2018-12-17T05:30:51.288Z,15.57
2018-12-17T05:33:21.743Z,15.17
2018-12-17T05:35:51.738Z,15.27
2018-12-17T05:38:21.729Z,18.37
2018-12-17T05:40:52.400Z,13.83
2018-12-17T05:43:22.597Z,14.00
2018-12-17T05:45:53.171Z,19.27
2018-12-17T05:48:23.246Z,114.30
2018-12-17T05:50:53.423Z,68.50
2018-12-17T05:53:23.597Z,84.97
2018-12-17T05:55:53.664Z,135.50
2018-12-17T05:58:23.718Z,120.73
2018-12-17T06:00:53.793Z,115.73
2018-12-17T06:03:24.280Z,101.90
2018-12-17T06:05:54.543Z,104.47
2018-12-17T06:08:24.619Z,90.00
2018-12-17T06:10:54.642Z,95.37
2018-12-17T06:13:24.737Z,98.67
2018-12-17T06:15:55.187Z,92.23
2018-12-17T06:18:25.361Z,23.60
2018-12-17T06:20:55.940Z,44.80
2018-12-17T06:23:26.069Z,10.00
2018-12-17T06:25:56.877Z,18.03
2018-12-17T06:28:27.283Z,12.50
2018-12-17T06:30:57.312Z,14.07
2018-12-17T06:33:27.641Z,11.30
2018-12-17T06:35:57.805Z,12.63
2018-12-17T06:38:27.830Z,9.10
2018-12-17T06:40:58.032Z,7.60
2018-12-17T06:43:28.038Z,7.60
2018-12-17T06:45:58.101Z,9.90
2018-12-17T06:48:28.126Z,14.13
2018-12-17T06:50:58.194Z,4.07
2018-12-17T06:53:28.184Z,8.33
2018-12-17T06:55:58.643Z,5.33
2018-12-17T06:58:29.085Z,5.47
2018-12-17T07:00:59.309Z,7.50
2018-12-17T07:03:29.315Z,7.07
2018-12-17T07:06:00.572Z,5.13
2018-12-17T07:08:30.684Z,4.93
2018-12-17T07:11:00.772Z,5.43
2018-12-17T07:13:30.916Z,5.50
2018-12-17T07:16:01.089Z,5.90
2018-12-17T07:18:31.201Z,6.17
2018-12-17T07:21:01.216Z,7.70
2018-12-17T07:23:31.235Z,4.30
2018-12-17T07:26:01.424Z,6.00
2018-12-17T07:28:31.785Z,3.97
2018-12-17T07:31:01.859Z,3.30
2018-12-17T07:33:32.508Z,3.43
2018-12-17T07:36:02.742Z,5.33
2018-12-17T07:38:33.059Z,5.20
2018-12-17T07:41:03.233Z,3.53
2018-12-17T07:43:33.236Z,6.00
2018-12-17T07:46:03.460Z,17.00
2018-12-17T07:48:33.792Z,3.57
2018-12-17T07:51:03.809Z,4.80
2018-12-17T07:53:33.844Z,3.70
2018-12-17T07:56:03.895Z,4.10
2018-12-17T07:58:34.223Z,20.63
2018-12-17T08:01:04.721Z,5.57
2018-12-17T08:03:34.768Z,7.00
2018-12-17T08:06:04.806Z,15.43
2018-12-17T08:08:35.505Z,12.90
2018-12-17T08:11:05.894Z,20.97
2018-12-17T08:13:36.176Z,23.80
2018-12-17T08:16:06.227Z,99.67
2018-12-17T08:18:36.484Z,64.70
2018-12-17T08:21:06.797Z,50.27
2018-12-17T08:23:37.099Z,80.73
2018-12-17T08:26:07.328Z,46.07
2018-12-17T08:28:38.404Z,52.93
2018-12-17T08:31:09.091Z,30.23
2018-12-17T08:33:39.263Z,28.73
2018-12-17T08:36:09.257Z,23.10
2018-12-17T08:38:39.969Z,17.73
2018-12-17T08:41:10.489Z,16.10
2018-12-17T08:43:40.506Z,15.53
2018-12-17T08:46:10.677Z,24.60
2018-12-17T08:48:40.873Z,16.00
2018-12-17T08:51:11.180Z,18.13
2018-12-17T08:53:41.245Z,31.57
2018-12-17T08:56:11.358Z,16.87
2018-12-17T08:58:41.391Z,19.07
2018-12-17T09:01:11.408Z,18.67
2018-12-17T09:03:41.427Z,33.63
2018-12-17T09:06:11.568Z,20.57
2018-12-17T09:08:42.065Z,13.17
2018-12-17T09:11:12.211Z,15.80
2018-12-17T09:13:42.217Z,18.30
2018-12-17T09:16:13.091Z,13.93
2018-12-17T09:18:43.091Z,15.23
2018-12-17T09:21:13.139Z,18.53
2018-12-17T09:23:43.223Z,12.50
2018-12-17T09:26:13.257Z,15.27
2018-12-17T09:28:43.284Z,18.07
2018-12-17T09:31:13.513Z,18.33
2018-12-17T09:33:43.597Z,17.90
2018-12-17T09:36:13.624Z,15.53
2018-12-17T09:38:43.781Z,18.67
2018-12-17T09:41:13.809Z,13.50
2018-12-17T09:43:43.854Z,16.37
2018-12-17T09:46:13.856Z,17.17
2018-12-17T09:48:44.899Z,15.90
2018-12-17T09:51:19.475Z,14.10
2018-12-17T09:53:48.034Z,15.60
2018-12-17T09:56:18.327Z,15.07
2018-12-17T09:58:48.980Z,13.73
2018-12-17T10:01:19.181Z,16.30
2018-12-17T10:03:49.324Z,19.83
2018-12-17T10:06:19.448Z,16.97
2018-12-17T10:08:49.816Z,16.30
2018-12-17T10:11:20.724Z,16.20
2018-12-17T10:13:51.089Z,15.93
2018-12-17T10:16:21.100Z,26.07
2018-12-17T10:18:51.151Z,25.70
2018-12-17T10:21:21.420Z,23.13
2018-12-17T10:23:51.545Z,25.73
2018-12-17T10:26:21.740Z,24.23
2018-12-17T10:28:52.070Z,20.33
2018-12-17T10:31:22.326Z,25.07
2018-12-17T10:33:52.578Z,13.53
2018-12-17T10:36:22.628Z,19.10
2018-12-17T10:38:52.681Z,24.00
2018-12-17T10:41:22.750Z,18.97
2018-12-17T10:43:52.813Z,21.30
2018-12-17T10:46:22.905Z,18.10
2018-12-17T10:48:52.900Z,14.00
2018-12-17T10:51:22.989Z,14.07
2018-12-17T10:53:53.027Z,16.10
2018-12-17T10:56:23.372Z,19.67
2018-12-17T10:58:53.399Z,29.33
2018-12-17T11:01:28.765Z,28.60
2018-12-17T11:04:04.552Z,33.13
2018-12-17T11:06:35.819Z,34.10
2018-12-17T11:09:09.365Z,38.70
2018-12-17T11:11:39.641Z,42.47
2018-12-17T11:14:09.672Z,43.80
2018-12-17T11:16:39.863Z,47.80
2018-12-17T11:19:09.934Z,54.97
2018-12-17T11:21:39.933Z,44.93
2018-12-17T11:24:10.281Z,41.60
2018-12-17T11:26:41.061Z,46.63
2018-12-17T11:29:11.255Z,40.97
2018-12-17T11:31:41.301Z,45.80
2018-12-17T11:34:11.330Z,46.03
2018-12-17T11:36:41.415Z,45.57
2018-12-17T11:39:11.556Z,54.60
2018-12-17T11:41:42.443Z,55.83
2018-12-17T11:44:12.578Z,51.73
2018-12-17T11:46:44.361Z,54.60
2018-12-17T11:49:14.715Z,58.33
2018-12-17T11:51:45.173Z,59.97
2018-12-17T11:54:15.523Z,55.40
2018-12-17T11:56:55.312Z,56.57
2018-12-17T11:59:25.360Z,55.27
2018-12-17T12:01:55.736Z,56.33
2018-12-17T12:04:25.761Z,54.90
2018-12-17T12:06:55.817Z,61.60
2018-12-17T12:09:26.092Z,70.27
2018-12-17T12:11:56.389Z,76.73
2018-12-17T12:14:26.633Z,65.97
2018-12-17T12:16:56.962Z,58.77
2018-12-17T12:19:27.049Z,63.43
2018-12-17T12:21:57.179Z,55.57
2018-12-17T12:24:27.305Z,54.77
2018-12-17T12:26:57.318Z,55.83
2018-12-17T12:29:27.396Z,50.63
2018-12-17T12:31:57.521Z,52.93
2018-12-17T12:34:27.557Z,54.87
2018-12-17T12:36:57.593Z,48.87
2018-12-17T12:39:27.813Z,51.10
2018-12-17T12:41:57.830Z,53.17
2018-12-17T12:44:27.857Z,56.40
2018-12-17T12:46:58.002Z,64.23
2018-12-17T12:49:28.222Z,60.20
2018-12-17T12:51:58.331Z,54.33
2018-12-17T12:54:28.866Z,65.23
2018-12-17T12:56:59.948Z,58.60
2018-12-17T12:59:31.088Z,59.00
2018-12-17T13:02:02.032Z,56.17
2018-12-17T13:04:33.347Z,61.10
2018-12-17T13:07:03.526Z,50.67
2018-12-17T13:09:33.597Z,58.90
2018-12-17T13:12:03.666Z,51.77
2018-12-17T13:14:34.281Z,46.70
2018-12-17T13:17:09.647Z,52.03
2018-12-17T13:19:41.076Z,56.67
2018-12-17T13:22:11.129Z,56.57
2018-12-17T13:24:41.342Z,62.93
2018-12-17T13:27:11.576Z,55.33
2018-12-17T13:29:41.713Z,58.30
2018-12-17T13:32:11.811Z,56.90
2018-12-17T13:34:42.973Z,58.90
2018-12-17T13:37:13.022Z,56.60
2018-12-17T13:39:43.270Z,61.17
2018-12-17T13:42:13.308Z,59.20
2018-12-17T13:44:43.540Z,63.43
2018-12-17T13:47:13.669Z,69.10
2018-12-17T13:49:43.932Z,67.30
2018-12-17T13:52:19.397Z,58.90
2018-12-17T13:54:49.679Z,67.57
2018-12-17T13:57:20.616Z,73.07
2018-12-17T13:59:50.776Z,67.17
2018-12-17T14:02:21.083Z,80.70
2018-12-17T14:04:51.099Z,87.67
2018-12-17T14:07:21.300Z,76.37
2018-12-17T14:09:57.016Z,71.93
2018-12-17T14:12:27.261Z,92.53
2018-12-17T14:14:57.288Z,69.50
2018-12-17T14:17:32.637Z,71.67
2018-12-17T14:20:07.863Z,78.00
2018-12-17T14:22:38.481Z,84.73
2018-12-17T14:25:09.089Z,82.17
2018-12-17T14:27:39.572Z,68.17
2018-12-17T14:30:10.390Z,92.60
2018-12-17T14:32:40.498Z,75.13
2018-12-17T14:35:10.557Z,82.97
2018-12-17T14:37:45.721Z,74.17
2018-12-17T14:40:16.037Z,84.20
2018-12-17T14:42:46.013Z,75.33
2018-12-17T14:45:16.149Z,86.67
2018-12-17T14:47:46.201Z,89.40
2018-12-17T14:50:16.333Z,74.90
2018-12-17T14:52:47.180Z,93.03
2018-12-17T14:55:17.213Z,83.03
2018-12-17T14:57:47.557Z,91.10
2018-12-17T15:00:17.663Z,98.50
2018-12-17T15:02:48.681Z,97.00
2018-12-17T15:05:20.065Z,90.30
2018-12-17T15:07:50.137Z,103.37
2018-12-17T15:10:20.161Z,89.53
2018-12-17T15:12:50.658Z,87.83
2018-12-17T15:15:20.754Z,100.37
2018-12-17T15:17:50.972Z,104.70
2018-12-17T15:20:21.193Z,102.87
2018-12-17T15:22:52.597Z,89.20
2018-12-17T15:25:23.038Z,85.30
2018-12-17T15:27:53.147Z,111.17
2018-12-17T15:30:23.519Z,104.83
2018-12-17T15:32:53.525Z,108.30
2018-12-17T15:35:23.565Z,111.23
2018-12-17T15:37:53.560Z,93.10
2018-12-17T15:40:23.953Z,95.33
2018-12-17T15:42:53.980Z,81.63
2018-12-17T15:45:24.926Z,92.30
2018-12-17T15:47:55.131Z,105.33
2018-12-17T15:50:25.181Z,110.27
2018-12-17T15:52:55.344Z,112.90
2018-12-17T15:55:26.496Z,102.10
2018-12-17T15:57:56.585Z,104.70
2018-12-17T16:00:26.606Z,114.20
2018-12-17T16:02:56.892Z,94.63
2018-12-17T16:05:27.878Z,95.80
2018-12-17T16:07:58.104Z,83.73
2018-12-17T16:10:28.448Z,102.60
2018-12-17T16:12:58.841Z,103.37
2018-12-17T16:15:29.257Z,93.90
2018-12-17T16:17:59.754Z,94.03
2018-12-17T16:20:30.449Z,92.60
2018-12-17T16:23:00.745Z,96.50
2018-12-17T16:25:34.241Z,92.90
2018-12-17T16:28:05.676Z,90.40
2018-12-17T16:30:35.897Z,118.23
2018-12-17T16:33:06.332Z,117.73
2018-12-17T16:35:36.401Z,138.03
2018-12-17T16:38:06.502Z,125.97
2018-12-17T16:40:37.902Z,130.27
2018-12-17T16:43:07.996Z,123.80
2018-12-17T16:45:38.178Z,117.37
2018-12-17T16:48:08.286Z,114.13
2018-12-17T16:50:38.346Z,119.37
2018-12-17T16:53:08.666Z,123.87
2018-12-17T16:55:39.548Z,143.67
2018-12-17T16:58:09.796Z,119.63
2018-12-17T17:00:39.797Z,131.70
2018-12-17T17:03:11.086Z,119.70
2018-12-17T17:05:41.908Z,109.80
2018-12-17T17:08:12.062Z,108.80
2018-12-17T17:10:42.100Z,90.63
2018-12-17T17:13:12.553Z,89.10
2018-12-17T17:15:42.724Z,98.70
2018-12-17T17:18:12.801Z,85.87
2018-12-17T17:20:43.081Z,115.83
2018-12-17T17:23:13.140Z,95.37
2018-12-17T17:25:43.262Z,123.60
2018-12-17T17:28:13.289Z,125.13
2018-12-17T17:30:43.410Z,112.73
2018-12-17T17:33:13.524Z,91.03
2018-12-17T17:35:43.653Z,107.17
2018-12-17T17:38:13.677Z,116.03
2018-12-17T17:40:43.744Z,122.60
2018-12-17T17:43:13.940Z,106.37
2018-12-17T17:45:44.090Z,98.70
2018-12-17T17:48:14.127Z,107.30
2018-12-17T17:50:44.271Z,100.23
2018-12-17T17:53:14.392Z,102.73
2018-12-17T17:55:44.410Z,97.80
2018-12-17T17:58:15.520Z,102.53
2018-12-17T18:00:45.640Z,101.50
2018-12-17T18:03:16.001Z,102.47
2018-12-17T18:05:46.052Z,102.40
2018-12-17T18:08:16.220Z,102.50
2018-12-17T18:10:46.429Z,112.60
2018-12-17T18:13:16.490Z,93.13
2018-12-17T18:15:46.530Z,98.23
2018-12-17T18:18:16.562Z,115.60
2018-12-17T18:20:47.036Z,103.53
2018-12-17T18:23:17.104Z,94.17
2018-12-17T18:25:47.280Z,104.40
2018-12-17T18:28:17.542Z,88.37
2018-12-17T18:30:47.714Z,107.53
2018-12-17T18:33:17.852Z,121.33
2018-12-17T18:35:47.949Z,117.60
2018-12-17T18:38:17.978Z,128.03
2018-12-17T18:40:48.025Z,140.43
2018-12-17T18:43:18.123Z,131.33
2018-12-17T18:45:48.360Z,120.10
2018-12-17T18:48:18.583Z,137.90
2018-12-17T18:50:48.690Z,110.67
2018-12-17T18:53:18.809Z,116.57
2018-12-17T18:55:48.881Z,139.53
2018-12-17T18:58:18.924Z,179.73
2018-12-17T19:00:49.207Z,174.43
2018-12-17T19:03:20.131Z,143.50
2018-12-17T19:05:51.701Z,119.60
2018-12-17T19:08:21.889Z,137.60
2018-12-17T19:10:56.236Z,117.03
2018-12-17T19:13:26.297Z,108.00
2018-12-17T19:15:56.409Z,112.90
2018-12-17T19:18:26.478Z,107.40
2018-12-17T19:20:56.524Z,91.13
2018-12-17T19:23:26.784Z,70.97
2018-12-17T19:25:57.094Z,61.60
2018-12-17T19:28:27.174Z,76.47
2018-12-17T19:30:57.409Z,70.80
2018-12-17T19:33:27.662Z,65.60
2018-12-17T19:35:57.715Z,71.13
2018-12-17T19:38:27.752Z,74.07
2018-12-17T19:40:57.861Z,69.33
2018-12-17T19:43:27.918Z,71.80
2018-12-17T19:45:57.992Z,82.27
2018-12-17T19:48:28.126Z,71.53
2018-12-17T19:50:58.278Z,90.20
2018-12-17T19:53:28.361Z,84.60
2018-12-17T19:55:58.591Z,104.33
2018-12-17T19:58:28.695Z,109.70
2018-12-17T20:00:58.881Z,103.43
2018-12-17T20:03:28.999Z,116.97
2018-12-17T20:05:59.633Z,104.57
2018-12-17T20:08:30.021Z,102.33
2018-12-17T20:11:00.125Z,99.73
2018-12-17T20:13:30.179Z,122.60
2018-12-17T20:16:00.735Z,93.90
2018-12-17T20:18:30.898Z,102.43
2018-12-17T20:21:01.049Z,94.27
2018-12-17T20:23:31.173Z,100.37
2018-12-17T20:26:01.278Z,118.00
2018-12-17T20:28:31.378Z,105.33
2018-12-17T20:31:01.484Z,85.70
2018-12-17T20:33:31.591Z,62.47
2018-12-17T20:36:01.631Z,59.60
2018-12-17T20:38:31.645Z,49.63
2018-12-17T20:41:01.774Z,35.57
2018-12-17T20:43:32.020Z,24.70
2018-12-17T20:46:02.060Z,21.60
2018-12-17T20:48:32.120Z,16.13
2018-12-17T20:51:02.307Z,10.80
2018-12-17T20:53:32.328Z,10.33
2018-12-17T20:56:02.766Z,8.57
2018-12-17T20:58:32.959Z,9.10
2018-12-17T21:01:02.997Z,10.37
2018-12-17T21:03:33.375Z,6.00
2018-12-17T21:06:03.397Z,5.13
2018-12-17T21:08:33.503Z,10.90
2018-12-17T21:11:03.566Z,18.17
2018-12-17T21:13:33.666Z,16.90
2018-12-17T21:16:03.740Z,9.07
2018-12-17T21:18:33.891Z,8.90
2018-12-17T21:21:04.107Z,6.97
2018-12-17T21:23:34.284Z,9.13
2018-12-17T21:26:04.320Z,12.00
2018-12-17T21:28:34.415Z,13.63
2018-12-17T21:31:04.565Z,7.83
2018-12-17T21:33:34.600Z,30.10
2018-12-17T21:36:05.125Z,20.50
2018-12-17T21:38:35.171Z,15.40
2018-12-17T21:41:05.450Z,11.93
2018-12-17T21:43:36.201Z,14.20
2018-12-17T21:46:06.470Z,13.87
2018-12-17T21:48:36.748Z,11.40
2018-12-17T21:51:06.861Z,20.50
2018-12-17T21:53:36.905Z,16.73
2018-12-17T21:56:06.968Z,12.00
2018-12-17T21:58:37.417Z,14.40
2018-12-17T22:01:07.460Z,9.83
2018-12-17T22:03:37.728Z,14.70
2018-12-17T22:06:07.750Z,12.47
2018-12-17T22:08:37.760Z,10.50
2018-12-17T22:11:07.830Z,9.03
2018-12-17T22:13:37.826Z,8.33
2018-12-17T22:16:07.837Z,9.80
2018-12-17T22:18:37.893Z,10.47
2018-12-17T22:21:07.929Z,11.27
2018-12-17T22:23:38.053Z,13.77
2018-12-17T22:26:08.170Z,12.03
2018-12-17T22:28:38.597Z,13.00
2018-12-17T22:31:08.824Z,14.53
2018-12-17T22:33:38.942Z,13.77
2018-12-17T22:36:09.014Z,12.83
2018-12-17T22:38:39.041Z,12.03
2018-12-17T22:41:09.264Z,12.43
2018-12-17T22:43:39.278Z,13.20
2018-12-17T22:46:09.373Z,13.00
2018-12-17T22:48:39.442Z,16.57
2018-12-17T22:51:09.632Z,16.10
2018-12-17T22:53:39.635Z,20.90
2018-12-17T22:56:09.766Z,22.23
2018-12-17T22:58:42.487Z,18.10
2018-12-17T23:01:11.852Z,15.97
2018-12-17T23:03:42.001Z,17.60
2018-12-17T23:06:12.080Z,19.27
2018-12-17T23:09:06.170Z,17.40
2018-12-17T23:11:52.569Z,19.20
2018-12-17T23:14:33.890Z,21.87
2018-12-17T23:17:15.409Z,23.17
2018-12-17T23:19:46.262Z,19.73
2018-12-17T23:22:16.503Z,19.43
2018-12-17T23:24:46.632Z,23.40
2018-12-17T23:27:16.774Z,26.60
2018-12-17T23:29:47.029Z,20.33
2018-12-17T23:32:17.080Z,29.97
2018-12-17T23:34:47.224Z,21.43
2018-12-17T23:37:17.249Z,21.10
2018-12-17T23:39:47.357Z,28.03
2018-12-17T23:42:17.386Z,17.50
2018-12-17T23:44:47.460Z,16.87
2018-12-17T23:47:17.529Z,20.50
2018-12-17T23:49:47.533Z,19.53
2018-12-17T23:52:17.605Z,15.97
2018-12-17T23:54:47.774Z,18.07
2018-12-17T23:57:17.937Z,19.73
2018-12-17T23:59:47.948Z,23.03
